Smock, PA (15480)

10:40 PM EST on February 08, 2016 (GMT -0500)
Dunbar | | Change Station
CLOSE
Current Station
Personal Weather Station
Location: Dunbar, PA
Elevation: 1056 ft
Nearby Weather Stations
Active Advisory: Winter Weather Advisory

Elev 1056 ft 40.00 °N, 79.69 °W | Updated 6 minutes ago

Overcast
Overcast
34.7 °F
Feels Like 35 °F
N
0.0
Wind Variable Wind from West
Gusts 0.0 mph

Today
High -- | Low -- °F
--% Chance of Precip.
Yesterday
High -- | Low -- °F
Precip. -- in
Pressure 29.60 in
Visibility 6.0 miles
Clouds Mostly Cloudy 2800 ft
Overcast 3300 ft
Windchill 35 °F
Dew Point 31 °F
Humidity 86%
Rainfall 0.04 in
Snow Depth Not available.
7:20 AM 5:46 PM
New Moon, 0% visible
SPECI KMGW 090333Z 00000KT 6SM BR BKN028 OVC033 01/M01 A2960 RMK AO2 T00111011
Pressure 29.60 in
Visibility 6.0 miles
Clouds Mostly Cloudy 2800 ft
Overcast 3300 ft
Windchill 35 °F
Dew Point 31 °F
Humidity 86%
Rainfall 0.04 in
Snow Depth Not available.
7:20 AM 5:46 PM
New Moon, 0% visible
SPECI KMGW 090333Z 00000KT 6SM BR BKN028 OVC033 01/M01 A2960 RMK AO2 T00111011

10-Day Weather Forecast

Almanac

Astronomy

Feb. 08, 2016 Rise Set
Actual Time
Civil Twilight
Nautical Twilight
Astronomical Twilight
Moon
Length of Visible Light
Length of Day
Tomorrow will be .
, % of the Moon is Illuminated

Today's Extremes

State Highs State Lows

Community

WunderPhotos

Upload Photos

1,891,527 photos uploaded!

WunderBlog® & News

Nearby

Air Quality

  Air Quality AQ Index Pollutant
Not available.

Snow Depth

Station Depth Elevation

Earthquake Activity

City Distance Mag. Time & Date
Minimum magnitude displayed is 2.5.

Coastal Water Temperatures

Place Temperature

Stations

Nearby Weather Stations

Station Location Temp. Windchill Dew Point Humidity Wind Precip. Elev Updated Type
                   

Watches & Warnings

Winter Weather Advisory
Issued: 7:12 PM EST Feb. 8, 2016 – National Weather Service

... Winter Weather Advisory remains in effect until 7 am EST
Wednesday...

* snow accumulation... 3 to 5 inches.

* Snow beginning... this evening.

* Period of most intense snow... Tuesday.

* Snow ending... snow showers will gradually taper down through
Tuesday night.

* Impacts... hazardous travel conditions are expected due to snow.

Precautionary/preparedness actions...

A Winter Weather Advisory for snow means that periods of snow
will cause primarily travel difficulties. Be prepared for snow
covered roads and limited visibilities... and use caution while
driving.